sensor_id;sensor_type;location;lat;lon;timestamp;temperature;humidity
31379;DHT22;61664;48.112;11.662;2023-10-31T00:01:21;13.20;92.80
31379;DHT22;61664;48.112;11.662;2023-10-31T00:03:48;13.10;92.80
31379;DHT22;61664;48.112;11.662;2023-10-31T00:06:15;13.10;92.80
31379;DHT22;61664;48.112;11.662;2023-10-31T00:08:42;13.10;92.90
31379;DHT22;61664;48.112;11.662;2023-10-31T00:11:09;13.00;93.00
31379;DHT22;61664;48.112;11.662;2023-10-31T00:13:35;13.00;93.00
31379;DHT22;61664;48.112;11.662;2023-10-31T00:16:03;13.00;92.90
31379;DHT22;61664;48.112;11.662;2023-10-31T00:18:30;12.90;92.80
31379;DHT22;61664;48.112;11.662;2023-10-31T00:20:57;12.90;92.50
31379;DHT22;61664;48.112;11.662;2023-10-31T00:23:24;12.80;92.50
31379;DHT22;61664;48.112;11.662;2023-10-31T00:25:50;12.80;92.60
31379;DHT22;61664;48.112;11.662;2023-10-31T00:28:17;12.70;92.60
31379;DHT22;61664;48.112;11.662;2023-10-31T00:30:44;12.70;92.60
31379;DHT22;61664;48.112;11.662;2023-10-31T00:33:11;12.60;92.70
31379;DHT22;61664;48.112;11.662;2023-10-31T00:35:38;12.50;92.80
31379;DHT22;61664;48.112;11.662;2023-10-31T00:38:05;12.50;92.90
31379;DHT22;61664;48.112;11.662;2023-10-31T00:40:32;12.50;93.00
31379;DHT22;61664;48.112;11.662;2023-10-31T00:42:59;12.40;93.10
31379;DHT22;61664;48.112;11.662;2023-10-31T00:45:27;12.50;93.10
31379;DHT22;61664;48.112;11.662;2023-10-31T00:47:54;12.40;93.20
31379;DHT22;61664;48.112;11.662;2023-10-31T00:50:21;12.40;93.40
31379;DHT22;61664;48.112;11.662;2023-10-31T00:52:48;12.30;93.20
31379;DHT22;61664;48.112;11.662;2023-10-31T00:55:15;12.30;93.20
31379;DHT22;61664;48.112;11.662;2023-10-31T00:57:42;12.30;93.30
31379;DHT22;61664;48.112;11.662;2023-10-31T01:00:09;12.20;93.20
31379;DHT22;61664;48.112;11.662;2023-10-31T01:02:36;12.20;93.40
31379;DHT22;61664;48.112;11.662;2023-10-31T01:05:03;12.40;93.40
31379;DHT22;61664;48.112;11.662;2023-10-31T01:07:31;12.20;93.60
31379;DHT22;61664;48.112;11.662;2023-10-31T01:09:58;12.20;93.60
31379;DHT22;61664;48.112;11.662;2023-10-31T01:12:25;12.20;93.50
31379;DHT22;61664;48.112;11.662;2023-10-31T01:14:54;12.20;93.50
31379;DHT22;61664;48.112;11.662;2023-10-31T01:17:21;12.20;93.60
31379;DHT22;61664;48.112;11.662;2023-10-31T01:19:48;12.20;93.70
31379;DHT22;61664;48.112;11.662;2023-10-31T01:22:15;12.20;93.80
31379;DHT22;61664;48.112;11.662;2023-10-31T01:24:42;12.20;93.90
31379;DHT22;61664;48.112;11.662;2023-10-31T01:27:09;12.20;94.00
31379;DHT22;61664;48.112;11.662;2023-10-31T01:29:36;12.20;94.00
31379;DHT22;61664;48.112;11.662;2023-10-31T01:32:03;12.20;93.90
31379;DHT22;61664;48.112;11.662;2023-10-31T01:34:38;12.20;94.00
31379;DHT22;61664;48.112;11.662;2023-10-31T01:37:05;12.20;94.10
31379;DHT22;61664;48.112;11.662;2023-10-31T01:39:32;12.20;94.10
31379;DHT22;61664;48.112;11.662;2023-10-31T01:41:59;12.20;94.10
31379;DHT22;61664;48.112;11.662;2023-10-31T01:44:26;12.20;94.10
31379;DHT22;61664;48.112;11.662;2023-10-31T01:46:53;12.20;94.10
31379;DHT22;61664;48.112;11.662;2023-10-31T01:49:20;12.20;94.00
31379;DHT22;61664;48.112;11.662;2023-10-31T01:51:48;12.20;93.90
31379;DHT22;61664;48.112;11.662;2023-10-31T01:54:15;12.20;93.90
31379;DHT22;61664;48.112;11.662;2023-10-31T01:56:43;12.20;93.90
31379;DHT22;61664;48.112;11.662;2023-10-31T01:59:10;12.10;93.70
31379;DHT22;61664;48.112;11.662;2023-10-31T02:01:38;12.20;93.80
31379;DHT22;61664;48.112;11.662;2023-10-31T02:04:08;12.10;93.90
31379;DHT22;61664;48.112;11.662;2023-10-31T02:06:35;12.10;93.90
31379;DHT22;61664;48.112;11.662;2023-10-31T02:09:02;12.10;93.90
31379;DHT22;61664;48.112;11.662;2023-10-31T02:11:29;12.10;94.10
31379;DHT22;61664;48.112;11.662;2023-10-31T02:13:56;12.10;94.00
31379;DHT22;61664;48.112;11.662;2023-10-31T02:16:25;12.20;94.10
31379;DHT22;61664;48.112;11.662;2023-10-31T02:18:52;12.10;94.10
31379;DHT22;61664;48.112;11.662;2023-10-31T02:21:20;12.10;94.20
31379;DHT22;61664;48.112;11.662;2023-10-31T02:24:03;12.10;94.30
31379;DHT22;61664;48.112;11.662;2023-10-31T02:26:32;12.10;94.10
31379;DHT22;61664;48.112;11.662;2023-10-31T02:29:00;12.10;93.60
31379;DHT22;61664;48.112;11.662;2023-10-31T02:31:29;12.00;93.50
31379;DHT22;61664;48.112;11.662;2023-10-31T02:33:56;12.00;93.50
31379;DHT22;61664;48.112;11.662;2023-10-31T02:36:23;12.00;93.60
31379;DHT22;61664;48.112;11.662;2023-10-31T02:38:50;12.00;93.60
31379;DHT22;61664;48.112;11.662;2023-10-31T02:41:17;11.90;93.80
31379;DHT22;61664;48.112;11.662;2023-10-31T02:43:44;11.90;93.70
31379;DHT22;61664;48.112;11.662;2023-10-31T02:46:11;11.90;93.50
31379;DHT22;61664;48.112;11.662;2023-10-31T02:48:40;11.90;93.40
31379;DHT22;61664;48.112;11.662;2023-10-31T02:51:07;11.90;93.40
31379;DHT22;61664;48.112;11.662;2023-10-31T02:53:34;11.80;93.40
31379;DHT22;61664;48.112;11.662;2023-10-31T02:56:03;11.80;93.40
31379;DHT22;61664;48.112;11.662;2023-10-31T02:58:30;11.70;93.40
31379;DHT22;61664;48.112;11.662;2023-10-31T03:00:57;11.70;93.50
31379;DHT22;61664;48.112;11.662;2023-10-31T03:03:24;11.70;93.70
31379;DHT22;61664;48.112;11.662;2023-10-31T03:05:51;11.70;93.80
31379;DHT22;61664;48.112;11.662;2023-10-31T03:08:18;11.70;93.80
31379;DHT22;61664;48.112;11.662;2023-10-31T03:10:48;11.70;93.90
31379;DHT22;61664;48.112;11.662;2023-10-31T03:13:19;11.70;94.00
31379;DHT22;61664;48.112;11.662;2023-10-31T03:15:46;11.70;93.90
31379;DHT22;61664;48.112;11.662;2023-10-31T03:18:14;11.70;94.10
31379;DHT22;61664;48.112;11.662;2023-10-31T03:20:45;11.70;94.00
31379;DHT22;61664;48.112;11.662;2023-10-31T03:23:13;11.70;94.10
31379;DHT22;61664;48.112;11.662;2023-10-31T03:25:41;11.70;94.00
31379;DHT22;61664;48.112;11.662;2023-10-31T03:28:18;11.70;94.10
31379;DHT22;61664;48.112;11.662;2023-10-31T03:30:47;11.70;94.30
31379;DHT22;61664;48.112;11.662;2023-10-31T03:33:15;11.70;94.00
31379;DHT22;61664;48.112;11.662;2023-10-31T03:35:45;11.70;93.90
31379;DHT22;61664;48.112;11.662;2023-10-31T03:38:13;11.70;93.90
31379;DHT22;61664;48.112;11.662;2023-10-31T03:40:41;11.60;93.90
31379;DHT22;61664;48.112;11.662;2023-10-31T03:43:08;11.60;94.00
31379;DHT22;61664;48.112;11.662;2023-10-31T03:45:35;11.60;94.00
31379;DHT22;61664;48.112;11.662;2023-10-31T03:48:02;11.60;94.00
31379;DHT22;61664;48.112;11.662;2023-10-31T03:50:29;11.60;94.00
31379;DHT22;61664;48.112;11.662;2023-10-31T03:52:56;11.60;94.00
31379;DHT22;61664;48.112;11.662;2023-10-31T03:55:23;11.60;94.10
31379;DHT22;61664;48.112;11.662;2023-10-31T03:57:50;11.60;94.10
31379;DHT22;61664;48.112;11.662;2023-10-31T04:00:17;11.60;94.10
31379;DHT22;61664;48.112;11.662;2023-10-31T04:02:44;11.60;94.20
31379;DHT22;61664;48.112;11.662;2023-10-31T04:05:11;11.60;94.20
31379;DHT22;61664;48.112;11.662;2023-10-31T04:07:41;11.60;94.40
31379;DHT22;61664;48.112;11.662;2023-10-31T04:10:08;11.60;94.40
31379;DHT22;61664;48.112;11.662;2023-10-31T04:12:35;11.60;94.30
31379;DHT22;61664;48.112;11.662;2023-10-31T04:15:03;11.60;94.30
31379;DHT22;61664;48.112;11.662;2023-10-31T04:17:31;11.60;94.30
31379;DHT22;61664;48.112;11.662;2023-10-31T04:19:58;11.60;94.30
31379;DHT22;61664;48.112;11.662;2023-10-31T04:22:25;11.60;94.30
31379;DHT22;61664;48.112;11.662;2023-10-31T04:24:52;11.60;94.30
31379;DHT22;61664;48.112;11.662;2023-10-31T04:27:19;11.70;94.30
31379;DHT22;61664;48.112;11.662;2023-10-31T04:29:46;11.60;94.20
31379;DHT22;61664;48.112;11.662;2023-10-31T04:32:13;11.60;94.10
31379;DHT22;61664;48.112;11.662;2023-10-31T04:34:40;11.60;94.10
31379;DHT22;61664;48.112;11.662;2023-10-31T04:37:07;11.60;94.00
31379;DHT22;61664;48.112;11.662;2023-10-31T04:39:34;11.60;94.10
31379;DHT22;61664;48.112;11.662;2023-10-31T04:42:01;11.60;94.00
31379;DHT22;61664;48.112;11.662;2023-10-31T04:44:28;11.60;94.00
31379;DHT22;61664;48.112;11.662;2023-10-31T04:46:55;11.60;94.00
31379;DHT22;61664;48.112;11.662;2023-10-31T04:49:22;11.60;94.00
31379;DHT22;61664;48.112;11.662;2023-10-31T04:51:49;11.60;93.90
31379;DHT22;61664;48.112;11.662;2023-10-31T04:54:16;11.60;93.70
31379;DHT22;61664;48.112;11.662;2023-10-31T04:56:43;11.60;93.50
31379;DHT22;61664;48.112;11.662;2023-10-31T04:59:10;11.60;93.50
31379;DHT22;61664;48.112;11.662;2023-10-31T05:01:37;11.50;93.60
31379;DHT22;61664;48.112;11.662;2023-10-31T05:04:04;11.60;93.80
31379;DHT22;61664;48.112;11.662;2023-10-31T05:06:38;11.50;93.80
31379;DHT22;61664;48.112;11.662;2023-10-31T05:09:06;11.50;93.80
31379;DHT22;61664;48.112;11.662;2023-10-31T05:11:33;11.50;93.90
31379;DHT22;61664;48.112;11.662;2023-10-31T05:14:00;11.50;93.90
31379;DHT22;61664;48.112;11.662;2023-10-31T05:16:27;11.50;93.70
31379;DHT22;61664;48.112;11.662;2023-10-31T05:18:54;11.50;93.70
31379;DHT22;61664;48.112;11.662;2023-10-31T05:21:21;11.50;93.60
31379;DHT22;61664;48.112;11.662;2023-10-31T05:23:50;11.50;93.60
31379;DHT22;61664;48.112;11.662;2023-10-31T05:26:17;11.50;93.60
31379;DHT22;61664;48.112;11.662;2023-10-31T05:28:44;11.50;93.70
31379;DHT22;61664;48.112;11.662;2023-10-31T05:31:11;11.50;93.70
31379;DHT22;61664;48.112;11.662;2023-10-31T05:33:39;11.50;93.70
31379;DHT22;61664;48.112;11.662;2023-10-31T05:36:06;11.50;93.70
31379;DHT22;61664;48.112;11.662;2023-10-31T05:38:33;11.50;93.80
31379;DHT22;61664;48.112;11.662;2023-10-31T05:41:00;11.50;93.90
31379;DHT22;61664;48.112;11.662;2023-10-31T05:43:27;11.50;93.90
31379;DHT22;61664;48.112;11.662;2023-10-31T05:45:54;11.50;93.80
31379;DHT22;61664;48.112;11.662;2023-10-31T05:48:21;11.50;93.70
31379;DHT22;61664;48.112;11.662;2023-10-31T05:50:48;11.50;93.80
31379;DHT22;61664;48.112;11.662;2023-10-31T05:53:15;11.50;94.00
31379;DHT22;61664;48.112;11.662;2023-10-31T05:55:42;11.50;94.00
31379;DHT22;61664;48.112;11.662;2023-10-31T05:58:09;11.50;94.00
31379;DHT22;61664;48.112;11.662;2023-10-31T06:00:37;11.50;94.00
31379;DHT22;61664;48.112;11.662;2023-10-31T06:03:04;11.50;94.00
31379;DHT22;61664;48.112;11.662;2023-10-31T06:05:31;11.50;94.10
31379;DHT22;61664;48.112;11.662;2023-10-31T06:07:58;11.50;94.20
31379;DHT22;61664;48.112;11.662;2023-10-31T06:10:25;11.50;94.20
31379;DHT22;61664;48.112;11.662;2023-10-31T06:12:52;11.50;94.10
31379;DHT22;61664;48.112;11.662;2023-10-31T06:15:18;11.50;94.00
31379;DHT22;61664;48.112;11.662;2023-10-31T06:17:46;11.60;94.00
31379;DHT22;61664;48.112;11.662;2023-10-31T06:20:13;11.60;94.00
31379;DHT22;61664;48.112;11.662;2023-10-31T06:22:39;11.50;94.10
31379;DHT22;61664;48.112;11.662;2023-10-31T06:25:06;11.60;94.10
31379;DHT22;61664;48.112;11.662;2023-10-31T06:27:33;11.50;94.10
31379;DHT22;61664;48.112;11.662;2023-10-31T06:30:01;11.60;94.10
31379;DHT22;61664;48.112;11.662;2023-10-31T06:32:46;11.50;94.20
31379;DHT22;61664;48.112;11.662;2023-10-31T06:35:13;11.60;94.20
31379;DHT22;61664;48.112;11.662;2023-10-31T06:37:40;11.60;94.30
31379;DHT22;61664;48.112;11.662;2023-10-31T06:40:07;11.60;94.30
31379;DHT22;61664;48.112;11.662;2023-10-31T06:42:35;11.60;94.30
31379;DHT22;61664;48.112;11.662;2023-10-31T06:45:03;11.60;94.40
31379;DHT22;61664;48.112;11.662;2023-10-31T06:47:30;11.60;94.40
31379;DHT22;61664;48.112;11.662;2023-10-31T06:49:57;11.60;94.30
31379;DHT22;61664;48.112;11.662;2023-10-31T06:52:24;11.60;94.10
31379;DHT22;61664;48.112;11.662;2023-10-31T06:54:52;11.60;94.10
31379;DHT22;61664;48.112;11.662;2023-10-31T06:57:19;11.60;94.20
31379;DHT22;61664;48.112;11.662;2023-10-31T06:59:45;11.60;94.30
31379;DHT22;61664;48.112;11.662;2023-10-31T07:02:13;11.60;94.30
31379;DHT22;61664;48.112;11.662;2023-10-31T07:04:40;11.60;94.50
31379;DHT22;61664;48.112;11.662;2023-10-31T07:07:07;11.60;94.30
31379;DHT22;61664;48.112;11.662;2023-10-31T07:09:34;11.70;94.30
31379;DHT22;61664;48.112;11.662;2023-10-31T07:12:01;11.60;94.10
31379;DHT22;61664;48.112;11.662;2023-10-31T07:14:28;11.60;94.00
31379;DHT22;61664;48.112;11.662;2023-10-31T07:16:56;11.70;94.00
31379;DHT22;61664;48.112;11.662;2023-10-31T07:19:23;11.70;94.00
31379;DHT22;61664;48.112;11.662;2023-10-31T07:21:50;11.60;93.90
31379;DHT22;61664;48.112;11.662;2023-10-31T07:24:17;11.60;93.90
31379;DHT22;61664;48.112;11.662;2023-10-31T07:26:45;11.60;93.90
31379;DHT22;61664;48.112;11.662;2023-10-31T07:29:12;11.60;93.90
31379;DHT22;61664;48.112;11.662;2023-10-31T07:31:39;11.60;93.80
31379;DHT22;61664;48.112;11.662;2023-10-31T07:34:07;11.60;93.80
31379;DHT22;61664;48.112;11.662;2023-10-31T07:36:37;11.50;93.80
31379;DHT22;61664;48.112;11.662;2023-10-31T07:39:05;11.50;93.90
31379;DHT22;61664;48.112;11.662;2023-10-31T07:41:35;11.50;94.00
31379;DHT22;61664;48.112;11.662;2023-10-31T07:44:02;11.50;94.20
31379;DHT22;61664;48.112;11.662;2023-10-31T07:46:30;11.50;94.30
31379;DHT22;61664;48.112;11.662;2023-10-31T07:48:56;11.50;94.30
31379;DHT22;61664;48.112;11.662;2023-10-31T07:51:23;11.50;94.40
31379;DHT22;61664;48.112;11.662;2023-10-31T07:53:51;11.60;94.60
31379;DHT22;61664;48.112;11.662;2023-10-31T07:56:18;11.60;94.50
31379;DHT22;61664;48.112;11.662;2023-10-31T07:58:49;11.60;94.40
31379;DHT22;61664;48.112;11.662;2023-10-31T08:01:18;11.60;94.40
31379;DHT22;61664;48.112;11.662;2023-10-31T08:03:46;11.70;94.50
31379;DHT22;61664;48.112;11.662;2023-10-31T08:06:14;11.70;94.50
31379;DHT22;61664;48.112;11.662;2023-10-31T08:08:42;11.70;94.50
31379;DHT22;61664;48.112;11.662;2023-10-31T08:11:09;11.80;94.50
31379;DHT22;61664;48.112;11.662;2023-10-31T08:13:38;11.80;94.70
31379;DHT22;61664;48.112;11.662;2023-10-31T08:16:06;11.80;94.80
31379;DHT22;61664;48.112;11.662;2023-10-31T08:18:34;11.80;94.80
31379;DHT22;61664;48.112;11.662;2023-10-31T08:21:03;11.90;94.90
31379;DHT22;61664;48.112;11.662;2023-10-31T08:23:30;12.00;94.90
31379;DHT22;61664;48.112;11.662;2023-10-31T08:25:57;12.00;94.70
31379;DHT22;61664;48.112;11.662;2023-10-31T08:28:24;12.00;94.50
31379;DHT22;61664;48.112;11.662;2023-10-31T08:30:51;12.00;94.30
31379;DHT22;61664;48.112;11.662;2023-10-31T08:33:18;12.10;94.20
31379;DHT22;61664;48.112;11.662;2023-10-31T08:35:45;12.10;94.10
31379;DHT22;61664;48.112;11.662;2023-10-31T08:38:14;12.10;94.10
31379;DHT22;61664;48.112;11.662;2023-10-31T08:40:52;12.10;94.00
31379;DHT22;61664;48.112;11.662;2023-10-31T08:43:19;12.10;93.90
31379;DHT22;61664;48.112;11.662;2023-10-31T08:45:46;12.10;94.00
31379;DHT22;61664;48.112;11.662;2023-10-31T08:48:13;12.10;94.00
31379;DHT22;61664;48.112;11.662;2023-10-31T08:50:42;12.10;93.90
31379;DHT22;61664;48.112;11.662;2023-10-31T08:53:10;12.10;93.70
31379;DHT22;61664;48.112;11.662;2023-10-31T08:55:37;12.10;93.70
31379;DHT22;61664;48.112;11.662;2023-10-31T08:58:04;12.10;93.70
31379;DHT22;61664;48.112;11.662;2023-10-31T09:00:31;12.10;93.70
31379;DHT22;61664;48.112;11.662;2023-10-31T09:02:58;12.10;93.90
31379;DHT22;61664;48.112;11.662;2023-10-31T09:05:25;12.10;94.10
31379;DHT22;61664;48.112;11.662;2023-10-31T09:07:52;12.10;94.00
31379;DHT22;61664;48.112;11.662;2023-10-31T09:10:22;12.10;94.00
31379;DHT22;61664;48.112;11.662;2023-10-31T09:12:49;12.10;93.80
31379;DHT22;61664;48.112;11.662;2023-10-31T09:15:16;12.10;93.70
31379;DHT22;61664;48.112;11.662;2023-10-31T09:17:43;12.20;93.70
31379;DHT22;61664;48.112;11.662;2023-10-31T09:20:10;12.20;93.70
31379;DHT22;61664;48.112;11.662;2023-10-31T09:22:38;12.20;93.80
31379;DHT22;61664;48.112;11.662;2023-10-31T09:25:05;12.20;93.90
31379;DHT22;61664;48.112;11.662;2023-10-31T09:27:32;12.20;93.90
31379;DHT22;61664;48.112;11.662;2023-10-31T09:29:59;12.20;94.00
31379;DHT22;61664;48.112;11.662;2023-10-31T09:32:26;12.20;94.10
31379;DHT22;61664;48.112;11.662;2023-10-31T09:34:53;12.20;94.00
31379;DHT22;61664;48.112;11.662;2023-10-31T09:37:20;12.30;94.00
31379;DHT22;61664;48.112;11.662;2023-10-31T09:40:07;12.30;94.10
31379;DHT22;61664;48.112;11.662;2023-10-31T09:42:35;12.30;94.20
31379;DHT22;61664;48.112;11.662;2023-10-31T09:45:02;12.40;94.30
31379;DHT22;61664;48.112;11.662;2023-10-31T09:47:30;12.40;94.40
31379;DHT22;61664;48.112;11.662;2023-10-31T09:49:59;12.40;94.40
31379;DHT22;61664;48.112;11.662;2023-10-31T09:52:26;12.40;94.40
31379;DHT22;61664;48.112;11.662;2023-10-31T09:54:54;12.50;94.30
31379;DHT22;61664;48.112;11.662;2023-10-31T09:57:22;12.50;94.40
31379;DHT22;61664;48.112;11.662;2023-10-31T09:59:49;12.50;94.40
31379;DHT22;61664;48.112;11.662;2023-10-31T10:02:18;12.60;94.40
31379;DHT22;61664;48.112;11.662;2023-10-31T10:04:45;12.60;94.30
31379;DHT22;61664;48.112;11.662;2023-10-31T10:07:18;12.60;94.50
31379;DHT22;61664;48.112;11.662;2023-10-31T10:09:46;12.60;94.50
31379;DHT22;61664;48.112;11.662;2023-10-31T10:12:14;12.60;94.50
31379;DHT22;61664;48.112;11.662;2023-10-31T10:14:44;12.70;94.60
31379;DHT22;61664;48.112;11.662;2023-10-31T10:17:21;12.70;94.50
31379;DHT22;61664;48.112;11.662;2023-10-31T10:20:09;12.70;94.50
31379;DHT22;61664;48.112;11.662;2023-10-31T10:22:42;12.80;94.40
31379;DHT22;61664;48.112;11.662;2023-10-31T10:25:11;12.80;94.40
31379;DHT22;61664;48.112;11.662;2023-10-31T10:27:41;12.80;94.40
31379;DHT22;61664;48.112;11.662;2023-10-31T10:30:09;12.80;94.50
31379;DHT22;61664;48.112;11.662;2023-10-31T10:32:36;12.80;94.50
31379;DHT22;61664;48.112;11.662;2023-10-31T10:35:04;12.90;94.60
31379;DHT22;61664;48.112;11.662;2023-10-31T10:37:31;12.90;94.60
31379;DHT22;61664;48.112;11.662;2023-10-31T10:39:59;12.90;94.60
31379;DHT22;61664;48.112;11.662;2023-10-31T10:45:14;13.00;94.60
31379;DHT22;61664;48.112;11.662;2023-10-31T10:47:48;13.00;94.50
31379;DHT22;61664;48.112;11.662;2023-10-31T10:50:20;13.00;94.40
31379;DHT22;61664;48.112;11.662;2023-10-31T10:53:12;13.10;94.40
31379;DHT22;61664;48.112;11.662;2023-10-31T10:56:12;13.10;94.50
31379;DHT22;61664;48.112;11.662;2023-10-31T10:58:52;13.10;94.40
31379;DHT22;61664;48.112;11.662;2023-10-31T11:01:25;13.10;94.50
31379;DHT22;61664;48.112;11.662;2023-10-31T11:03:55;13.10;94.60
31379;DHT22;61664;48.112;11.662;2023-10-31T11:06:23;13.20;94.70
31379;DHT22;61664;48.112;11.662;2023-10-31T11:08:52;13.20;94.80
31379;DHT22;61664;48.112;11.662;2023-10-31T11:11:20;13.20;94.80
31379;DHT22;61664;48.112;11.662;2023-10-31T11:13:51;13.20;94.80
31379;DHT22;61664;48.112;11.662;2023-10-31T11:16:25;13.20;94.80
31379;DHT22;61664;48.112;11.662;2023-10-31T11:19:02;13.30;94.90
31379;DHT22;61664;48.112;11.662;2023-10-31T11:21:30;13.40;94.90
31379;DHT22;61664;48.112;11.662;2023-10-31T11:23:59;13.40;95.00
31379;DHT22;61664;48.112;11.662;2023-10-31T11:26:27;13.40;95.10
31379;DHT22;61664;48.112;11.662;2023-10-31T11:29:04;13.50;95.20
31379;DHT22;61664;48.112;11.662;2023-10-31T11:31:32;13.60;95.10
31379;DHT22;61664;48.112;11.662;2023-10-31T11:34:03;13.60;95.20
31379;DHT22;61664;48.112;11.662;2023-10-31T11:36:31;13.60;95.20
31379;DHT22;61664;48.112;11.662;2023-10-31T11:39:19;13.70;95.20
31379;DHT22;61664;48.112;11.662;2023-10-31T11:41:55;13.70;95.00
31379;DHT22;61664;48.112;11.662;2023-10-31T11:44:26;13.80;95.10
31379;DHT22;61664;48.112;11.662;2023-10-31T11:46:58;13.80;95.10
31379;DHT22;61664;48.112;11.662;2023-10-31T11:50:02;13.80;95.20
31379;DHT22;61664;48.112;11.662;2023-10-31T11:52:29;13.90;94.90
31379;DHT22;61664;48.112;11.662;2023-10-31T11:54:56;13.90;95.00
31379;DHT22;61664;48.112;11.662;2023-10-31T11:57:27;14.00;95.00
31379;DHT22;61664;48.112;11.662;2023-10-31T11:59:55;14.00;94.80
31379;DHT22;61664;48.112;11.662;2023-10-31T12:02:22;14.00;95.00
31379;DHT22;61664;48.112;11.662;2023-10-31T12:04:49;14.00;95.00
31379;DHT22;61664;48.112;11.662;2023-10-31T12:07:18;14.10;94.80
31379;DHT22;61664;48.112;11.662;2023-10-31T12:09:48;14.10;94.80
31379;DHT22;61664;48.112;11.662;2023-10-31T12:12:15;14.10;94.60
31379;DHT22;61664;48.112;11.662;2023-10-31T12:14:42;14.10;94.70
31379;DHT22;61664;48.112;11.662;2023-10-31T12:17:09;14.10;94.80
31379;DHT22;61664;48.112;11.662;2023-10-31T12:19:37;14.20;94.90
31379;DHT22;61664;48.112;11.662;2023-10-31T12:22:13;14.20;95.00
31379;DHT22;61664;48.112;11.662;2023-10-31T12:24:41;14.30;95.10
31379;DHT22;61664;48.112;11.662;2023-10-31T12:27:08;14.30;95.10
31379;DHT22;61664;48.112;11.662;2023-10-31T12:29:36;14.30;95.30
31379;DHT22;61664;48.112;11.662;2023-10-31T12:32:03;14.40;95.40
31379;DHT22;61664;48.112;11.662;2023-10-31T12:34:30;14.40;95.30
31379;DHT22;61664;48.112;11.662;2023-10-31T12:37:01;14.50;95.20
31379;DHT22;61664;48.112;11.662;2023-10-31T12:39:30;14.50;95.10
31379;DHT22;61664;48.112;11.662;2023-10-31T12:41:57;14.50;94.80
31379;DHT22;61664;48.112;11.662;2023-10-31T12:44:26;14.60;94.80
31379;DHT22;61664;48.112;11.662;2023-10-31T12:46:55;14.60;94.80
31379;DHT22;61664;48.112;11.662;2023-10-31T12:49:23;14.60;94.80
31379;DHT22;61664;48.112;11.662;2023-10-31T12:52:00;14.70;94.90
31379;DHT22;61664;48.112;11.662;2023-10-31T12:54:32;14.70;94.50
31379;DHT22;61664;48.112;11.662;2023-10-31T12:57:08;14.60;94.40
31379;DHT22;61664;48.112;11.662;2023-10-31T12:59:37;14.60;94.00
31379;DHT22;61664;48.112;11.662;2023-10-31T13:02:06;14.70;93.70
31379;DHT22;61664;48.112;11.662;2023-10-31T13:04:35;14.60;93.50
31379;DHT22;61664;48.112;11.662;2023-10-31T13:07:04;14.50;93.20
31379;DHT22;61664;48.112;11.662;2023-10-31T13:09:34;14.50;93.10
31379;DHT22;61664;48.112;11.662;2023-10-31T13:12:04;14.40;92.80
31379;DHT22;61664;48.112;11.662;2023-10-31T13:14:33;14.40;93.00
31379;DHT22;61664;48.112;11.662;2023-10-31T13:17:00;14.30;93.20
31379;DHT22;61664;48.112;11.662;2023-10-31T13:19:29;14.30;93.40
31379;DHT22;61664;48.112;11.662;2023-10-31T13:21:56;14.30;92.10
31379;DHT22;61664;48.112;11.662;2023-10-31T13:24:23;14.20;91.30
31379;DHT22;61664;48.112;11.662;2023-10-31T13:26:50;14.10;91.00
31379;DHT22;61664;48.112;11.662;2023-10-31T13:29:20;14.00;90.80
31379;DHT22;61664;48.112;11.662;2023-10-31T13:31:47;13.90;90.80
31379;DHT22;61664;48.112;11.662;2023-10-31T13:34:14;13.80;91.00
31379;DHT22;61664;48.112;11.662;2023-10-31T13:36:41;13.70;91.10
31379;DHT22;61664;48.112;11.662;2023-10-31T13:39:09;13.60;91.30
31379;DHT22;61664;48.112;11.662;2023-10-31T13:41:36;13.50;91.50
31379;DHT22;61664;48.112;11.662;2023-10-31T13:44:03;13.40;91.50
31379;DHT22;61664;48.112;11.662;2023-10-31T13:46:31;13.30;91.60
31379;DHT22;61664;48.112;11.662;2023-10-31T13:48:57;13.20;91.80
31379;DHT22;61664;48.112;11.662;2023-10-31T13:51:24;13.20;92.10
31379;DHT22;61664;48.112;11.662;2023-10-31T13:53:51;13.20;92.20
31379;DHT22;61664;48.112;11.662;2023-10-31T13:56:18;13.10;92.40
31379;DHT22;61664;48.112;11.662;2023-10-31T13:58:45;13.10;92.90
31379;DHT22;61664;48.112;11.662;2023-10-31T14:01:13;13.10;93.20
31379;DHT22;61664;48.112;11.662;2023-10-31T14:03:40;13.10;93.50
31379;DHT22;61664;48.112;11.662;2023-10-31T14:06:08;13.10;93.80
31379;DHT22;61664;48.112;11.662;2023-10-31T14:08:35;13.20;93.70
31379;DHT22;61664;48.112;11.662;2023-10-31T14:11:02;13.20;93.70
31379;DHT22;61664;48.112;11.662;2023-10-31T14:13:29;13.20;93.80
31379;DHT22;61664;48.112;11.662;2023-10-31T14:15:56;13.20;93.80
31379;DHT22;61664;48.112;11.662;2023-10-31T14:18:23;13.30;93.90
31379;DHT22;61664;48.112;11.662;2023-10-31T14:20:50;13.30;93.90
31379;DHT22;61664;48.112;11.662;2023-10-31T14:23:18;13.30;93.90
31379;DHT22;61664;48.112;11.662;2023-10-31T14:25:45;13.40;94.00
31379;DHT22;61664;48.112;11.662;2023-10-31T14:28:12;13.30;93.60
31379;DHT22;61664;48.112;11.662;2023-10-31T14:30:39;13.40;93.40
31379;DHT22;61664;48.112;11.662;2023-10-31T14:33:06;13.40;93.30
31379;DHT22;61664;48.112;11.662;2023-10-31T14:35:34;13.40;93.20
31379;DHT22;61664;48.112;11.662;2023-10-31T14:38:02;13.40;93.40
31379;DHT22;61664;48.112;11.662;2023-10-31T14:40:29;13.40;93.30
31379;DHT22;61664;48.112;11.662;2023-10-31T14:42:57;13.40;93.20
31379;DHT22;61664;48.112;11.662;2023-10-31T14:45:24;13.40;93.20
31379;DHT22;61664;48.112;11.662;2023-10-31T14:47:51;13.40;93.20
31379;DHT22;61664;48.112;11.662;2023-10-31T14:50:19;13.50;93.10
31379;DHT22;61664;48.112;11.662;2023-10-31T14:52:49;13.40;93.10
31379;DHT22;61664;48.112;11.662;2023-10-31T14:55:16;13.40;93.00
31379;DHT22;61664;48.112;11.662;2023-10-31T14:57:43;13.40;93.00
31379;DHT22;61664;48.112;11.662;2023-10-31T15:00:10;13.40;92.90
31379;DHT22;61664;48.112;11.662;2023-10-31T15:02:38;13.40;93.00
31379;DHT22;61664;48.112;11.662;2023-10-31T15:05:06;13.40;93.00
31379;DHT22;61664;48.112;11.662;2023-10-31T15:07:33;13.40;93.30
31379;DHT22;61664;48.112;11.662;2023-10-31T15:10:00;13.40;93.10
31379;DHT22;61664;48.112;11.662;2023-10-31T15:12:29;13.40;93.20
31379;DHT22;61664;48.112;11.662;2023-10-31T15:14:56;13.40;93.20
31379;DHT22;61664;48.112;11.662;2023-10-31T15:17:23;13.40;93.40
31379;DHT22;61664;48.112;11.662;2023-10-31T15:19:50;13.40;93.40
31379;DHT22;61664;48.112;11.662;2023-10-31T15:22:17;13.40;93.50
31379;DHT22;61664;48.112;11.662;2023-10-31T15:24:47;13.40;93.50